createdAt,value
2017-12-27T00:00:40.584Z,983.57
2017-12-27T00:01:40.582Z,983.53
2017-12-27T00:02:40.571Z,983.57
2017-12-27T00:03:40.565Z,983.53
2017-12-27T00:04:40.559Z,983.57
2017-12-27T00:05:40.552Z,983.53
2017-12-27T00:06:40.544Z,983.52
2017-12-27T00:07:40.538Z,983.53
2017-12-27T00:08:40.533Z,983.49
2017-12-27T00:09:40.529Z,983.46
2017-12-27T00:10:40.520Z,983.44
2017-12-27T00:11:40.513Z,983.39
2017-12-27T00:12:40.506Z,983.39
2017-12-27T00:13:40.499Z,983.41
2017-12-27T00:14:40.493Z,983.42
2017-12-27T00:15:40.486Z,983.37
2017-12-27T00:16:40.479Z,983.39
2017-12-27T00:17:40.471Z,983.35
2017-12-27T00:18:40.467Z,983.38
2017-12-27T00:19:40.458Z,983.34
2017-12-27T00:20:40.454Z,983.29
2017-12-27T00:21:40.444Z,983.30
2017-12-27T00:22:40.438Z,983.24
2017-12-27T00:23:40.434Z,983.27
2017-12-27T00:24:40.424Z,983.24
2017-12-27T00:25:40.420Z,983.28
2017-12-27T00:26:40.413Z,983.29
2017-12-27T00:27:40.404Z,983.27
2017-12-27T00:28:40.399Z,983.29
2017-12-27T00:29:40.391Z,983.23
2017-12-27T00:30:40.385Z,983.19
2017-12-27T00:31:40.377Z,983.15
2017-12-27T00:32:40.371Z,983.18
2017-12-27T00:33:40.364Z,983.13
2017-12-27T00:34:40.364Z,983.10
2017-12-27T00:35:40.351Z,983.06
2017-12-27T00:36:40.344Z,983.01
2017-12-27T00:37:40.335Z,982.97
2017-12-27T00:38:40.330Z,982.93
2017-12-27T00:39:40.326Z,982.95
2017-12-27T00:40:40.338Z,982.94
2017-12-27T00:41:40.309Z,982.97
2017-12-27T00:42:40.316Z,982.96
2017-12-27T00:43:40.296Z,982.90
2017-12-27T00:44:40.291Z,982.88
2017-12-27T00:45:40.281Z,982.89
2017-12-27T00:46:40.278Z,982.92
2017-12-27T00:47:40.267Z,982.92
2017-12-27T00:48:40.267Z,982.89
2017-12-27T00:49:40.254Z,982.90
2017-12-27T00:50:40.247Z,982.91
2017-12-27T00:51:40.240Z,982.93
2017-12-27T00:52:40.234Z,982.91
2017-12-27T00:53:40.222Z,982.88
2017-12-27T00:54:40.217Z,982.83
2017-12-27T00:55:40.210Z,982.82
2017-12-27T00:56:40.201Z,982.79
2017-12-27T00:57:40.196Z,982.83
2017-12-27T00:58:40.188Z,982.79
2017-12-27T00:59:40.179Z,982.80
2017-12-27T01:00:40.175Z,982.78
2017-12-27T01:01:40.167Z,982.74
2017-12-27T01:02:40.161Z,982.70
2017-12-27T01:03:40.155Z,982.69
2017-12-27T01:04:40.146Z,982.64
2017-12-27T01:05:40.137Z,982.61
2017-12-27T01:06:40.132Z,982.56
2017-12-27T01:07:40.123Z,982.49
2017-12-27T01:08:40.116Z,982.46
2017-12-27T01:09:40.110Z,982.48
2017-12-27T01:10:40.100Z,982.52
2017-12-27T01:11:40.094Z,982.51
2017-12-27T01:12:40.087Z,982.48
2017-12-27T01:13:40.077Z,982.51
2017-12-27T01:14:40.072Z,982.50
2017-12-27T01:15:40.063Z,982.50
2017-12-27T01:16:40.057Z,982.47
2017-12-27T01:17:40.048Z,982.47
2017-12-27T01:18:40.043Z,982.46
2017-12-27T01:19:40.034Z,982.49
2017-12-27T01:20:40.027Z,982.46
2017-12-27T01:21:40.019Z,982.43
2017-12-27T01:22:40.012Z,982.42
2017-12-27T01:23:40.012Z,982.40
2017-12-27T01:24:39.997Z,982.38
2017-12-27T01:25:40.005Z,982.36
2017-12-27T01:26:39.982Z,982.35
2017-12-27T01:27:39.975Z,982.33
2017-12-27T01:28:39.966Z,982.35
2017-12-27T01:29:39.959Z,982.35
2017-12-27T01:30:39.953Z,982.29
2017-12-27T01:31:39.946Z,982.27
2017-12-27T01:32:39.937Z,982.23
2017-12-27T01:33:39.930Z,982.21
2017-12-27T01:34:39.922Z,982.13
2017-12-27T01:35:39.918Z,982.09
2017-12-27T01:36:39.906Z,982.11
2017-12-27T01:37:39.901Z,982.09
2017-12-27T01:38:39.892Z,982.05
2017-12-27T01:39:39.885Z,982.01
2017-12-27T01:40:39.879Z,982.01
2017-12-27T01:41:39.873Z,982.03
2017-12-27T01:42:39.864Z,982.02
2017-12-27T01:43:39.858Z,981.93
2017-12-27T01:44:39.890Z,981.89
2017-12-27T01:45:39.845Z,981.83
2017-12-27T01:46:39.832Z,981.82
2017-12-27T01:47:39.827Z,981.77
2017-12-27T01:48:39.819Z,981.76
2017-12-27T01:49:39.810Z,981.73
2017-12-27T01:50:39.805Z,981.71
2017-12-27T01:51:39.797Z,981.68
2017-12-27T01:52:39.789Z,981.66
2017-12-27T01:53:39.783Z,981.64
2017-12-27T01:54:39.778Z,981.61
2017-12-27T01:55:39.767Z,981.59
2017-12-27T01:56:39.762Z,981.55
2017-12-27T01:57:39.753Z,981.55
2017-12-27T01:58:39.746Z,981.55
2017-12-27T01:59:39.739Z,981.58
2017-12-27T02:00:39.732Z,981.60
2017-12-27T02:01:39.728Z,981.58
2017-12-27T02:02:39.718Z,981.60
2017-12-27T02:03:39.710Z,981.62
2017-12-27T02:04:39.707Z,981.61
2017-12-27T02:05:39.695Z,981.60
2017-12-27T02:06:39.694Z,981.56
2017-12-27T02:07:39.682Z,981.51
2017-12-27T02:08:39.677Z,981.51
2017-12-27T02:09:39.665Z,981.48
2017-12-27T02:10:39.658Z,981.48
2017-12-27T02:11:39.652Z,981.43
2017-12-27T02:12:39.645Z,981.40
2017-12-27T02:13:39.639Z,981.40
2017-12-27T02:14:39.631Z,981.39
2017-12-27T02:15:39.626Z,981.42
2017-12-27T02:16:39.617Z,981.37
2017-12-27T02:17:39.613Z,981.39
2017-12-27T02:18:39.602Z,981.37
2017-12-27T02:19:39.597Z,981.42
2017-12-27T02:20:39.600Z,981.35
2017-12-27T02:21:39.580Z,981.27
2017-12-27T02:22:39.572Z,981.32
2017-12-27T02:23:39.575Z,981.31
2017-12-27T02:24:39.560Z,981.27
2017-12-27T02:25:39.551Z,981.26
2017-12-27T02:26:39.543Z,981.19
2017-12-27T02:27:39.536Z,981.14
2017-12-27T02:28:39.531Z,981.11
2017-12-27T02:29:39.525Z,981.09
2017-12-27T02:30:39.515Z,981.11
2017-12-27T02:31:39.507Z,981.09
2017-12-27T02:32:39.498Z,981.06
2017-12-27T02:33:39.495Z,981.04
2017-12-27T02:34:39.486Z,981.07
2017-12-27T02:35:39.478Z,981.04
2017-12-27T02:36:39.472Z,980.98
2017-12-27T02:37:39.467Z,980.95
2017-12-27T02:38:39.458Z,980.94
2017-12-27T02:39:39.450Z,980.92
2017-12-27T02:40:39.443Z,980.93
2017-12-27T02:41:39.433Z,980.88
2017-12-27T02:42:39.429Z,980.84
2017-12-27T02:43:39.421Z,980.80
2017-12-27T02:44:39.412Z,980.70
2017-12-27T02:45:39.406Z,980.69
2017-12-27T02:46:39.399Z,980.65
2017-12-27T02:47:39.394Z,980.69
2017-12-27T02:48:39.384Z,980.61
2017-12-27T02:49:39.376Z,980.65
2017-12-27T02:50:39.369Z,980.67
2017-12-27T02:51:39.364Z,980.66
2017-12-27T02:52:39.358Z,980.61
2017-12-27T02:53:39.348Z,980.61
2017-12-27T02:54:39.344Z,980.56
2017-12-27T02:55:39.336Z,980.55
2017-12-27T02:56:39.332Z,980.52
2017-12-27T02:57:39.321Z,980.43
2017-12-27T02:58:39.316Z,980.43
2017-12-27T02:59:39.309Z,980.41
2017-12-27T03:00:39.301Z,980.34
2017-12-27T03:01:39.293Z,980.31
2017-12-27T03:02:39.293Z,980.30
2017-12-27T03:03:39.280Z,980.29
2017-12-27T03:04:39.274Z,980.26
2017-12-27T03:05:39.265Z,980.29
2017-12-27T03:06:39.260Z,980.27
2017-12-27T03:07:39.253Z,980.23
2017-12-27T03:08:39.248Z,980.21
2017-12-27T03:09:39.239Z,980.17
2017-12-27T03:10:39.235Z,980.09
2017-12-27T03:11:39.226Z,980.12
2017-12-27T03:12:39.217Z,980.11
2017-12-27T03:13:39.208Z,980.13
2017-12-27T03:14:39.210Z,980.06
2017-12-27T03:15:39.195Z,980.03
2017-12-27T03:16:39.192Z,980.02
2017-12-27T03:17:39.184Z,980.04
2017-12-27T03:18:39.177Z,980.01
2017-12-27T03:19:39.168Z,979.95
2017-12-27T03:20:39.162Z,979.92
2017-12-27T03:21:39.156Z,979.90
2017-12-27T03:22:39.155Z,979.84
2017-12-27T03:23:39.144Z,979.84
2017-12-27T03:24:39.135Z,979.82
2017-12-27T03:25:39.126Z,979.75
2017-12-27T03:26:39.122Z,979.78
2017-12-27T03:27:39.114Z,979.77
2017-12-27T03:28:39.107Z,979.74
2017-12-27T03:29:39.104Z,979.72
2017-12-27T03:30:39.094Z,979.59
2017-12-27T03:31:39.091Z,979.61
2017-12-27T03:32:39.078Z,979.59
2017-12-27T03:33:39.072Z,979.54
2017-12-27T03:34:39.063Z,979.57
2017-12-27T03:35:39.056Z,979.51
2017-12-27T03:36:39.053Z,979.53
2017-12-27T03:37:39.042Z,979.52
2017-12-27T03:38:39.035Z,979.43
2017-12-27T03:39:39.033Z,979.46
2017-12-27T03:40:39.023Z,979.40
2017-12-27T03:41:39.014Z,979.41
2017-12-27T03:42:39.006Z,979.39
2017-12-27T03:43:39.001Z,979.30
2017-12-27T03:44:38.997Z,979.29
2017-12-27T03:45:38.987Z,979.25
2017-12-27T03:46:38.980Z,979.24
2017-12-27T03:47:38.974Z,979.18
2017-12-27T03:48:38.967Z,979.13
2017-12-27T03:49:38.959Z,979.07
2017-12-27T03:50:38.952Z,979.05
2017-12-27T03:51:38.945Z,979.00
2017-12-27T03:52:38.939Z,978.93
2017-12-27T03:53:38.931Z,978.91
2017-12-27T03:54:38.924Z,978.93
2017-12-27T03:55:38.917Z,978.87
2017-12-27T03:56:38.911Z,978.81
2017-12-27T03:57:38.903Z,978.82
2017-12-27T03:58:38.897Z,978.77
2017-12-27T03:59:38.890Z,978.78
2017-12-27T04:00:38.884Z,978.78
2017-12-27T04:01:38.877Z,978.76
2017-12-27T04:02:38.868Z,978.72
2017-12-27T04:03:38.865Z,978.71
2017-12-27T04:04:38.855Z,978.66
2017-12-27T04:05:38.846Z,978.68
2017-12-27T04:06:38.842Z,978.63
2017-12-27T04:07:38.832Z,978.61
2017-12-27T04:08:38.826Z,978.61
2017-12-27T04:09:38.818Z,978.56
2017-12-27T04:10:38.814Z,978.60
2017-12-27T04:11:38.807Z,978.56
2017-12-27T04:12:38.802Z,978.54
2017-12-27T04:13:38.792Z,978.52
2017-12-27T04:14:38.785Z,978.51
2017-12-27T04:15:38.779Z,978.53
2017-12-27T04:16:38.774Z,978.55
2017-12-27T04:17:38.764Z,978.50
2017-12-27T04:18:38.759Z,978.52
2017-12-27T04:19:38.751Z,978.50
2017-12-27T04:20:38.744Z,978.44
2017-12-27T04:21:38.735Z,978.42
2017-12-27T04:22:38.729Z,978.40
2017-12-27T04:23:38.723Z,978.39
2017-12-27T04:24:38.721Z,978.35
2017-12-27T04:25:38.706Z,978.33
2017-12-27T04:26:38.707Z,978.34
2017-12-27T04:27:38.695Z,978.34
2017-12-27T04:28:38.688Z,978.32
2017-12-27T04:29:38.688Z,978.28
2017-12-27T04:30:38.674Z,978.25
2017-12-27T04:31:38.669Z,978.22
2017-12-27T04:32:38.660Z,978.23
2017-12-27T04:33:38.654Z,978.24
2017-12-27T04:34:38.645Z,978.23
2017-12-27T04:35:38.639Z,978.19
2017-12-27T04:36:38.632Z,978.19
2017-12-27T04:37:38.625Z,978.18
2017-12-27T04:38:38.616Z,978.11
2017-12-27T04:39:38.612Z,978.16
2017-12-27T04:40:38.607Z,978.11
2017-12-27T04:41:38.596Z,978.11
2017-12-27T04:42:38.588Z,978.12
2017-12-27T04:43:38.582Z,978.12
2017-12-27T04:44:38.577Z,978.04
2017-12-27T04:45:38.568Z,978.03
2017-12-27T04:46:38.562Z,978.02
2017-12-27T04:47:38.553Z,977.99
2017-12-27T04:48:38.548Z,978.00
2017-12-27T04:49:38.538Z,977.96
2017-12-27T04:50:38.535Z,977.96
2017-12-27T04:51:38.526Z,977.90
2017-12-27T04:52:38.518Z,977.89
2017-12-27T04:53:38.510Z,977.83
2017-12-27T04:54:38.505Z,977.85
2017-12-27T04:55:38.498Z,977.79
2017-12-27T04:56:38.493Z,977.76
2017-12-27T04:57:38.483Z,977.75
2017-12-27T04:58:38.477Z,977.68
2017-12-27T04:59:38.472Z,977.67
2017-12-27T05:00:38.465Z,977.66
2017-12-27T05:01:38.458Z,977.61
2017-12-27T05:02:38.449Z,977.61
2017-12-27T05:03:38.444Z,977.63
2017-12-27T05:04:38.435Z,977.60
2017-12-27T05:05:38.428Z,977.58
2017-12-27T05:06:38.420Z,977.53
2017-12-27T05:07:38.415Z,977.53
2017-12-27T05:08:38.408Z,977.52
2017-12-27T05:09:38.400Z,977.51
2017-12-27T05:10:38.392Z,977.49
2017-12-27T05:11:38.386Z,977.49
2017-12-27T05:12:38.380Z,977.46
2017-12-27T05:13:38.371Z,977.43
2017-12-27T05:14:38.365Z,977.43
2017-12-27T05:15:38.358Z,977.41
2017-12-27T05:16:38.353Z,977.37
2017-12-27T05:17:38.342Z,977.40
2017-12-27T05:18:38.338Z,977.36
2017-12-27T05:19:38.328Z,977.34
2017-12-27T05:20:38.324Z,977.29
2017-12-27T05:21:38.314Z,977.24
2017-12-27T05:22:38.308Z,977.23
2017-12-27T05:23:38.302Z,977.22
2017-12-27T05:24:38.293Z,977.23
2017-12-27T05:25:38.288Z,977.19
2017-12-27T05:26:38.280Z,977.20
2017-12-27T05:27:38.275Z,977.17
2017-12-27T05:28:38.267Z,977.17
2017-12-27T05:29:38.258Z,977.17
2017-12-27T05:30:38.253Z,977.15
2017-12-27T05:31:38.246Z,977.16
2017-12-27T05:32:38.239Z,977.14
2017-12-27T05:33:38.234Z,977.14
2017-12-27T05:34:38.230Z,977.09
2017-12-27T05:35:38.225Z,977.09
2017-12-27T05:36:38.210Z,977.06
2017-12-27T05:37:38.204Z,977.06
2017-12-27T05:38:38.195Z,977.01
2017-12-27T05:39:38.191Z,977.01
2017-12-27T05:40:38.183Z,977.01
2017-12-27T05:41:38.173Z,976.96
2017-12-27T05:42:38.170Z,976.97
2017-12-27T05:43:38.164Z,976.93
2017-12-27T05:44:38.158Z,976.90
2017-12-27T05:45:38.148Z,976.89
2017-12-27T05:46:38.143Z,976.85
2017-12-27T05:47:38.135Z,976.86
2017-12-27T05:48:38.129Z,976.86
2017-12-27T05:49:38.121Z,976.84
2017-12-27T05:50:38.114Z,976.81
2017-12-27T05:51:38.109Z,976.82
2017-12-27T05:52:38.103Z,976.85
2017-12-27T05:53:38.092Z,976.83
2017-12-27T05:54:38.099Z,976.83
2017-12-27T05:55:38.088Z,976.82
2017-12-27T05:56:38.072Z,976.78
2017-12-27T05:57:38.067Z,976.75
2017-12-27T05:58:38.060Z,976.77
2017-12-27T05:59:38.059Z,976.79
2017-12-27T06:00:38.047Z,976.78
2017-12-27T06:01:38.044Z,976.78
2017-12-27T06:02:38.032Z,976.79
2017-12-27T06:03:38.026Z,976.76
2017-12-27T06:04:38.018Z,976.74
2017-12-27T06:05:38.015Z,976.73
2017-12-27T06:06:38.006Z,976.66
2017-12-27T06:07:37.997Z,976.65
2017-12-27T06:08:37.994Z,976.66
2017-12-27T06:09:37.985Z,976.66
2017-12-27T06:10:37.978Z,976.64
2017-12-27T06:11:37.976Z,976.65
2017-12-27T06:12:37.964Z,976.60
2017-12-27T06:13:37.958Z,976.58
2017-12-27T06:14:37.951Z,976.56
2017-12-27T06:15:37.946Z,976.52
2017-12-27T06:16:37.938Z,976.48
2017-12-27T06:17:37.930Z,976.47
2017-12-27T06:18:37.925Z,976.42
2017-12-27T06:19:37.920Z,976.41
2017-12-27T06:20:37.911Z,976.36
2017-12-27T06:21:37.906Z,976.38
2017-12-27T06:22:37.898Z,976.35
2017-12-27T06:23:37.895Z,976.36
2017-12-27T06:24:37.885Z,976.39
2017-12-27T06:25:37.877Z,976.37
2017-12-27T06:26:37.878Z,976.33
2017-12-27T06:27:37.864Z,976.29
2017-12-27T06:28:37.856Z,976.33
2017-12-27T06:29:37.851Z,976.34
2017-12-27T06:30:37.844Z,976.30
2017-12-27T06:31:37.840Z,976.26
2017-12-27T06:32:37.830Z,976.28
2017-12-27T06:33:37.823Z,976.22
2017-12-27T06:34:37.819Z,976.20
2017-12-27T06:35:37.810Z,976.20
2017-12-27T06:36:37.802Z,976.17
2017-12-27T06:37:37.799Z,976.14
2017-12-27T06:38:37.791Z,976.11
2017-12-27T06:39:37.786Z,976.12
2017-12-27T06:40:37.777Z,976.10
2017-12-27T06:41:37.771Z,976.07
2017-12-27T06:42:37.768Z,976.06
2017-12-27T06:43:37.757Z,976.05
2017-12-27T06:44:37.751Z,976.05
2017-12-27T06:45:37.742Z,975.99
2017-12-27T06:46:37.736Z,975.94
2017-12-27T06:47:37.731Z,975.90
2017-12-27T06:48:37.723Z,975.88
2017-12-27T06:49:37.723Z,975.87
2017-12-27T06:50:37.710Z,975.82
2017-12-27T06:51:37.703Z,975.81
2017-12-27T06:52:37.698Z,975.83
2017-12-27T06:53:37.689Z,975.84
2017-12-27T06:54:37.707Z,975.87
2017-12-27T06:55:37.678Z,975.82
2017-12-27T06:56:37.670Z,975.79
2017-12-27T06:57:37.667Z,975.78
2017-12-27T06:58:37.662Z,975.74
2017-12-27T06:59:37.661Z,975.77
2017-12-27T07:00:37.645Z,975.73
2017-12-27T07:01:37.637Z,975.75
2017-12-27T07:02:37.630Z,975.73
2017-12-27T07:03:37.627Z,975.75
2017-12-27T07:04:37.625Z,975.68
2017-12-27T07:05:37.609Z,975.65
2017-12-27T07:06:37.603Z,975.66
2017-12-27T07:07:37.598Z,975.64
2017-12-27T07:08:37.594Z,975.67
2017-12-27T07:09:37.585Z,975.63
2017-12-27T07:10:37.577Z,975.61
2017-12-27T07:11:37.572Z,975.53
2017-12-27T07:12:37.565Z,975.54
2017-12-27T07:13:37.557Z,975.50
2017-12-27T07:14:37.550Z,975.50
2017-12-27T07:15:37.546Z,975.48
2017-12-27T07:16:37.537Z,975.47
2017-12-27T07:17:37.532Z,975.47
2017-12-27T07:18:37.526Z,975.46
2017-12-27T07:19:37.517Z,975.43
2017-12-27T07:20:37.513Z,975.41
2017-12-27T07:21:37.509Z,975.41
2017-12-27T07:22:37.498Z,975.41
2017-12-27T07:23:37.490Z,975.37
2017-12-27T07:24:37.488Z,975.46
2017-12-27T07:25:37.482Z,975.41
2017-12-27T07:26:37.471Z,975.36
2017-12-27T07:27:37.469Z,975.39
2017-12-27T07:28:37.461Z,975.32
2017-12-27T07:29:37.450Z,975.35
2017-12-27T07:30:37.447Z,975.29
2017-12-27T07:31:37.442Z,975.26
2017-12-27T07:32:37.435Z,975.25
2017-12-27T07:33:37.427Z,975.23
2017-12-27T07:34:37.420Z,975.18
2017-12-27T07:35:37.413Z,975.19
2017-12-27T07:36:37.406Z,975.15
2017-12-27T07:37:37.410Z,975.15
2017-12-27T07:38:37.394Z,975.09
2017-12-27T07:39:37.386Z,975.08
2017-12-27T07:40:37.380Z,975.04
2017-12-27T07:41:37.374Z,975.06
2017-12-27T07:42:37.368Z,975.07
2017-12-27T07:43:37.363Z,975.07
2017-12-27T07:44:37.356Z,975.05
2017-12-27T07:45:37.350Z,975.07
2017-12-27T07:46:37.342Z,975.11
2017-12-27T07:47:37.337Z,975.10
2017-12-27T07:48:37.329Z,975.09
2017-12-27T07:49:37.322Z,975.09
2017-12-27T07:50:37.316Z,975.07
2017-12-27T07:51:37.309Z,975.03
2017-12-27T07:52:37.306Z,974.98
2017-12-27T07:53:37.306Z,974.95
2017-12-27T07:54:37.289Z,974.95
2017-12-27T07:55:37.284Z,974.95
2017-12-27T07:56:37.277Z,974.91
2017-12-27T07:57:37.269Z,974.89
2017-12-27T07:58:37.265Z,974.86
2017-12-27T07:59:37.257Z,974.84
2017-12-27T08:00:37.254Z,974.82
2017-12-27T08:01:37.244Z,974.79
2017-12-27T08:02:37.239Z,974.78
2017-12-27T08:03:37.233Z,974.73
2017-12-27T08:04:37.226Z,974.75
2017-12-27T08:05:37.219Z,974.76
2017-12-27T08:06:37.212Z,974.75
2017-12-27T08:07:37.205Z,974.72
2017-12-27T08:08:37.200Z,974.73
2017-12-27T08:09:37.192Z,974.69
2017-12-27T08:10:37.187Z,974.68
2017-12-27T08:11:37.181Z,974.67
2017-12-27T08:12:37.175Z,974.62
2017-12-27T08:13:37.166Z,974.65
2017-12-27T08:14:37.163Z,974.66
2017-12-27T08:15:37.154Z,974.66
2017-12-27T08:16:37.149Z,974.64
2017-12-27T08:17:37.143Z,974.62
2017-12-27T08:18:37.135Z,974.65
2017-12-27T08:19:37.131Z,974.59
2017-12-27T08:20:37.126Z,974.57
2017-12-27T08:21:37.118Z,974.57
2017-12-27T08:22:37.116Z,974.51
2017-12-27T08:23:37.105Z,974.48
2017-12-27T08:24:37.099Z,974.46
2017-12-27T08:25:37.092Z,974.44
2017-12-27T08:26:37.086Z,974.43
2017-12-27T08:27:37.085Z,974.35
2017-12-27T08:28:37.082Z,974.35
2017-12-27T08:29:37.066Z,974.33
2017-12-27T08:30:37.063Z,974.34
2017-12-27T08:31:37.055Z,974.35
2017-12-27T08:32:37.048Z,974.29
2017-12-27T08:33:37.048Z,974.32
2017-12-27T08:34:37.037Z,974.27
2017-12-27T08:35:37.032Z,974.27
2017-12-27T08:36:37.029Z,974.27
2017-12-27T08:37:37.020Z,974.22
2017-12-27T08:38:37.016Z,974.22
2017-12-27T08:39:37.027Z,974.23
2017-12-27T08:40:37.002Z,974.19
2017-12-27T08:41:36.992Z,974.17
2017-12-27T08:42:36.994Z,974.12
2017-12-27T08:43:36.981Z,974.13
2017-12-27T08:44:36.976Z,974.14
2017-12-27T08:45:36.967Z,974.15
2017-12-27T08:46:36.965Z,974.08
2017-12-27T08:47:36.955Z,974.11
2017-12-27T08:48:36.951Z,974.05
2017-12-27T08:49:36.945Z,974.08
2017-12-27T08:50:36.943Z,974.05
2017-12-27T08:51:36.934Z,973.97
2017-12-27T08:52:36.928Z,973.97
2017-12-27T08:53:36.929Z,973.94
2017-12-27T08:54:36.916Z,973.97
2017-12-27T08:55:36.909Z,973.91
2017-12-27T08:56:36.904Z,973.90
2017-12-27T08:57:36.909Z,973.88
2017-12-27T08:58:36.891Z,973.89
2017-12-27T08:59:36.884Z,973.87
2017-12-27T09:00:36.881Z,973.84
2017-12-27T09:01:36.874Z,973.78
2017-12-27T09:02:36.866Z,973.80
2017-12-27T09:03:36.861Z,973.82
2017-12-27T09:04:36.857Z,973.82
2017-12-27T09:05:36.851Z,973.83
2017-12-27T09:06:36.848Z,973.82
2017-12-27T09:07:36.838Z,973.82
2017-12-27T09:08:36.839Z,973.79
2017-12-27T09:09:36.826Z,973.76
2017-12-27T09:10:36.821Z,973.79
2017-12-27T09:11:36.814Z,973.76
2017-12-27T09:12:36.813Z,973.76
2017-12-27T09:13:36.803Z,973.77
2017-12-27T09:14:36.801Z,973.74
2017-12-27T09:15:36.793Z,973.77
2017-12-27T09:16:36.793Z,973.81
2017-12-27T09:17:36.778Z,973.80
2017-12-27T09:18:36.775Z,973.81
2017-12-27T09:19:36.767Z,973.77
2017-12-27T09:20:36.762Z,973.74
2017-12-27T09:21:36.756Z,973.73
2017-12-27T09:22:36.753Z,973.72
2017-12-27T09:23:36.745Z,973.74
2017-12-27T09:24:36.742Z,973.72
2017-12-27T09:25:36.737Z,973.72
2017-12-27T09:26:36.730Z,973.73
2017-12-27T09:27:36.723Z,973.63
2017-12-27T09:28:36.719Z,973.63
2017-12-27T09:29:36.709Z,973.61
2017-12-27T09:30:36.705Z,973.63
2017-12-27T09:31:36.701Z,973.64
2017-12-27T09:32:36.697Z,973.60
2017-12-27T09:33:36.692Z,973.57
2017-12-27T09:34:36.684Z,973.55
2017-12-27T09:35:36.682Z,973.51
2017-12-27T09:36:36.673Z,973.50
2017-12-27T09:37:36.668Z,973.51
2017-12-27T09:38:36.663Z,973.47
2017-12-27T09:39:36.661Z,973.44
2017-12-27T09:40:36.652Z,973.47
2017-12-27T09:41:36.646Z,973.43
2017-12-27T09:42:36.644Z,973.43
2017-12-27T09:43:36.636Z,973.39
2017-12-27T09:44:36.630Z,973.37
2017-12-27T09:45:36.623Z,973.33
2017-12-27T09:46:36.619Z,973.34
2017-12-27T09:47:36.619Z,973.32
2017-12-27T09:48:36.612Z,973.31
2017-12-27T09:49:36.601Z,973.28
2017-12-27T09:50:36.598Z,973.20
2017-12-27T09:51:36.596Z,973.21
2017-12-27T09:52:36.588Z,973.16
2017-12-27T09:53:36.590Z,973.17
2017-12-27T09:54:36.592Z,973.17
2017-12-27T09:55:36.572Z,973.14
2017-12-27T09:56:36.603Z,973.13
2017-12-27T09:57:36.569Z,973.09
2017-12-27T09:58:36.558Z,973.08
2017-12-27T09:59:36.549Z,973.11
2017-12-27T10:00:36.546Z,973.08
2017-12-27T10:01:36.538Z,973.06
2017-12-27T10:02:36.533Z,973.08
2017-12-27T10:03:36.530Z,973.01
2017-12-27T10:04:36.525Z,972.99
2017-12-27T10:05:36.521Z,973.00
2017-12-27T10:06:36.513Z,972.98
2017-12-27T10:07:36.509Z,972.97
2017-12-27T10:08:36.505Z,972.97
2017-12-27T10:09:36.502Z,972.98
2017-12-27T10:10:36.514Z,973.00
2017-12-27T10:11:36.487Z,972.93
2017-12-27T10:12:36.483Z,972.89
2017-12-27T10:13:36.480Z,972.85
2017-12-27T10:14:36.472Z,972.84
2017-12-27T10:15:36.492Z,972.82
2017-12-27T10:16:36.462Z,972.83
2017-12-27T10:17:36.458Z,972.79
2017-12-27T10:18:36.451Z,972.76
2017-12-27T10:19:36.445Z,972.73
2017-12-27T10:20:36.442Z,972.70
2017-12-27T10:21:36.435Z,972.65
2017-12-27T10:22:36.431Z,972.62
2017-12-27T10:23:36.424Z,972.61
2017-12-27T10:24:36.418Z,972.60
2017-12-27T10:25:36.414Z,972.50
2017-12-27T10:26:36.408Z,972.46
2017-12-27T10:27:36.408Z,972.43
2017-12-27T10:28:36.398Z,972.40
2017-12-27T10:29:36.392Z,972.40
2017-12-27T10:30:36.388Z,972.37
2017-12-27T10:31:36.385Z,972.38
2017-12-27T10:32:36.378Z,972.37
2017-12-27T10:33:36.375Z,972.38
2017-12-27T10:34:36.367Z,972.35
2017-12-27T10:35:36.366Z,972.32
2017-12-27T10:36:36.361Z,972.27
2017-12-27T10:37:36.355Z,972.26
2017-12-27T10:38:36.349Z,972.25
2017-12-27T10:39:36.377Z,972.21
2017-12-27T10:40:36.341Z,972.19
2017-12-27T10:41:36.335Z,972.17
2017-12-27T10:42:36.330Z,972.17
2017-12-27T10:43:36.328Z,972.12
2017-12-27T10:44:36.320Z,972.09
2017-12-27T10:45:36.315Z,972.03
2017-12-27T10:46:36.310Z,972.05
2017-12-27T10:47:36.305Z,972.01
2017-12-27T10:48:36.309Z,972.02
2017-12-27T10:49:36.314Z,972.00
2017-12-27T10:50:36.293Z,971.98
2017-12-27T10:51:36.293Z,971.97
2017-12-27T10:52:36.281Z,971.94
2017-12-27T10:53:36.277Z,971.92
2017-12-27T10:54:36.291Z,971.86
2017-12-27T10:55:36.267Z,971.89
2017-12-27T10:56:36.264Z,971.85
2017-12-27T10:57:36.258Z,971.85
2017-12-27T10:58:36.255Z,971.81
2017-12-27T10:59:36.253Z,971.85
2017-12-27T11:00:36.246Z,971.79
2017-12-27T11:01:36.241Z,971.77
2017-12-27T11:02:36.237Z,971.75
2017-12-27T11:03:36.236Z,971.75
2017-12-27T11:04:36.228Z,971.72
2017-12-27T11:05:36.224Z,971.66
2017-12-27T11:06:36.216Z,971.70
2017-12-27T11:07:36.214Z,971.74
2017-12-27T11:08:36.213Z,971.71
2017-12-27T11:09:36.248Z,971.67
2017-12-27T11:10:36.201Z,971.69
2017-12-27T11:11:36.195Z,971.68
2017-12-27T11:12:36.189Z,971.63
2017-12-27T11:13:36.185Z,971.64
2017-12-27T11:14:36.183Z,971.56
2017-12-27T11:15:36.183Z,971.57
2017-12-27T11:16:36.175Z,971.55
2017-12-27T11:17:36.170Z,971.55
2017-12-27T11:18:36.166Z,971.57
2017-12-27T11:19:36.162Z,971.55
2017-12-27T11:20:36.156Z,971.52
2017-12-27T11:21:36.151Z,971.48
2017-12-27T11:22:36.148Z,971.45
2017-12-27T11:23:36.143Z,971.47
2017-12-27T11:24:36.140Z,971.48
2017-12-27T11:25:36.136Z,971.46
2017-12-27T11:26:36.132Z,971.49
2017-12-27T11:27:36.129Z,971.45
2017-12-27T11:28:36.124Z,971.46
2017-12-27T11:29:36.119Z,971.43
2017-12-27T11:30:36.116Z,971.41
2017-12-27T11:31:36.113Z,971.36
2017-12-27T11:32:36.108Z,971.33
2017-12-27T11:33:36.102Z,971.34
2017-12-27T11:34:36.100Z,971.29
2017-12-27T11:35:36.097Z,971.26
2017-12-27T11:36:36.093Z,971.27
2017-12-27T11:37:36.089Z,971.21
2017-12-27T11:38:36.084Z,971.19
2017-12-27T11:39:36.078Z,971.22
2017-12-27T11:40:36.077Z,971.13
2017-12-27T11:41:36.071Z,971.14
2017-12-27T11:42:36.067Z,971.12
2017-12-27T11:43:36.063Z,971.14
2017-12-27T11:44:36.063Z,971.07
2017-12-27T11:45:36.055Z,971.05
2017-12-27T11:46:36.051Z,970.97
2017-12-27T11:47:36.048Z,970.99
2017-12-27T11:48:36.044Z,970.94
2017-12-27T11:49:36.042Z,970.89
2017-12-27T11:50:36.035Z,970.84
2017-12-27T11:51:36.035Z,970.77
2017-12-27T11:52:36.032Z,970.78
2017-12-27T11:53:36.027Z,970.78
2017-12-27T11:54:36.023Z,970.79
2017-12-27T11:55:36.045Z,970.80
2017-12-27T11:56:36.126Z,970.77
2017-12-27T11:57:36.011Z,970.75
2017-12-27T11:58:36.008Z,970.73
2017-12-27T11:59:36.005Z,970.75
2017-12-27T12:00:36.026Z,970.70
2017-12-27T12:01:35.995Z,970.74
2017-12-27T12:02:35.999Z,970.71
2017-12-27T12:03:35.986Z,970.75
2017-12-27T12:04:35.986Z,970.75
2017-12-27T12:05:35.982Z,970.72
2017-12-27T12:06:35.978Z,970.65
2017-12-27T12:07:35.973Z,970.66
2017-12-27T12:08:35.969Z,970.59
2017-12-27T12:09:35.968Z,970.60
2017-12-27T12:10:35.963Z,970.59
2017-12-27T12:11:37.202Z,970.53
2017-12-27T12:12:36.955Z,970.51
2017-12-27T12:13:37.139Z,970.53
2017-12-27T12:14:36.386Z,970.49
2017-12-27T12:15:36.987Z,970.42
2017-12-27T12:16:37.016Z,970.40
2017-12-27T12:17:36.979Z,970.34
2017-12-27T12:18:36.096Z,970.30
2017-12-27T12:19:37.024Z,970.31
2017-12-27T12:20:37.003Z,970.30
2017-12-27T12:21:36.475Z,970.20
2017-12-27T12:22:37.050Z,970.20
2017-12-27T12:23:35.944Z,970.19
2017-12-27T12:24:37.107Z,970.19
2017-12-27T12:25:37.649Z,970.18
2017-12-27T12:26:35.903Z,970.18
2017-12-27T12:27:35.968Z,970.16
2017-12-27T12:28:37.553Z,970.13